Tasman Sea — WDB5559 — position and weather

sailwx.info

Track history (hours):
 
Tides and Currents Weather Stations Pressure Air Temp Water Temp Dewpoint Dewpoint Depression Visibility Wind Speed Wind Dir Waves Ship Positions

Tasman Sea

Owner: Kirby Offshore Marine, LLC, Staten Island, NY. More information available from US FCC via Universal Licensing System and Coast Guard Vessel Documentation Center.

Last reported at 2015-Apr-17 08:31 UTC. Time now 2015-Apr-19 01:11 UTC.
Position N 40°57' W 073°54'.

Length 38 m; draft 5 m.

Type: Tug. MMSI: 366910960.

Date/timePositionNaut miles runAvg speedWind from/ knotsBaromVisibWave heightAir tempDewpointWater temp
2015-Apr-17 08:31N 40°57' W 073°54'7 6.9
2015-Apr-17 07:33N 40°51' W 073°57'6 5.8
2015-Apr-17 06:34N 40°46' W 074°00'6 5.7
2015-Apr-17 05:33N 40°40' W 074°02'2 1.5
2015-Apr-17 04:33N 40°40' W 074°04'2 2.1
2015-Apr-17 03:33N 40°39' W 074°07'0 0.0
2015-Apr-17 02:33N 40°39' W 074°07'0 0.0
2015-Apr-17 01:33N 40°39' W 074°07'0 0.0
2015-Apr-17 00:29N 40°39' W 074°07'0 0.0
2015-Apr-16 23:33N 40°39' W 074°07'0 0.0
2015-Apr-16 22:33N 40°39' W 074°07'0 0.0
2015-Apr-16 21:33N 40°39' W 074°07'0 0.0
2015-Apr-16 20:33N 40°39' W 074°07'0 0.0
2015-Apr-16 19:33N 40°39' W 074°07'0 0.0
2015-Apr-16 18:33N 40°39' W 074°07'3 2.5
2015-Apr-16 17:33N 40°39' W 074°10'0 0.0
2015-Apr-16 16:33N 40°39' W 074°10'5 4.5
2015-Apr-16 15:33N 40°40' W 074°04'5 4.5
2015-Apr-16 14:31N 40°35' W 074°02'6 6.6
2015-Apr-16 13:33N 40°30' W 073°57'8 8.2
2015-Apr-16 12:33N 40°30' W 073°46'9 9.2
2015-Apr-16 11:33N 40°31' W 073°34'10 9.2
2015-Apr-16 10:31N 40°32' W 073°22'9 9.4
2015-Apr-16 09:30N 40°35' W 073°10'9 9.6
2015-Apr-16 08:33N 40°38' W 072°59'10 9.6
2015-Apr-16 07:33N 40°41' W 072°47'10 9.6
2015-Apr-16 06:33N 40°44' W 072°35'10 9.7
2015-Apr-16 05:33N 40°49' W 072°23'9 9.4
2015-Apr-16 04:33N 40°53' W 072°12'9 9.4
2015-Apr-16 03:33N 40°56' W 072°01'9 9.4
2015-Apr-16 02:33N 40°60' W 071°49'9 9.4
2015-Apr-16 01:33N 41°04' W 071°38'9 8.9
2015-Apr-16 00:33N 41°09' W 071°28'8 8.2
2015-Apr-15 23:33N 41°17' W 071°26'9 8.6
2015-Apr-15 22:33N 41°25' W 071°24'9 8.6
2015-Apr-15 21:33N 41°33' W 071°19'9 8.5
2015-Apr-15 20:33N 41°42' W 071°19'6 4.4
2015-Apr-15 19:15N 41°47' W 071°22'0 0.0
2015-Apr-15 18:33N 41°47' W 071°22'0 0.0
2015-Apr-15 17:33N 41°47' W 071°22'0 0.0
2015-Apr-15 16:33N 41°47' W 071°22'0 0.0
2015-Apr-15 15:33N 41°47' W 071°22'0 0.0
2015-Apr-15 14:33N 41°47' W 071°22'0 0.0
2015-Apr-15 13:28N 41°47' W 071°22'0 0.0
2015-Apr-15 12:32N 41°47' W 071°22'0 0.0
2015-Apr-15 11:32N 41°47' W 071°22'0 0.0
2015-Apr-15 10:33N 41°47' W 071°22'0 0.0
2015-Apr-15 09:33N 41°47' W 071°22'0 0.0
2015-Apr-15 08:31N 41°47' W 071°22'3 2.9
2015-Apr-15 07:33N 41°44' W 071°22'7 7.1
2015-Apr-15 06:32N 41°38' W 071°18'9 8.2
2015-Apr-15 05:25N 41°29' W 071°21'4 5.0
2015-Apr-15 04:33N 41°25' W 071°19'8 7.8
2015-Apr-15 03:33N 41°25' W 071°08'8 7.5
2015-Apr-15 02:33N 41°28' W 070°59'8 8.5
2015-Apr-15 01:33N 41°31' W 070°49'8 7.9
2015-Apr-15 00:33N 41°37' W 070°42'16 7.7
2015-Apr-14 22:28N 41°50' W 070°28'27 8.3
2015-Apr-14 19:16N 42°15' W 070°40'7 8.1
2015-Apr-14 18:25N 42°20' W 070°46'6 7.1
2015-Apr-14 17:31N 42°23' W 070°54'5 0.2
2015-Apr-13 21:26N 42°22' W 070°47'38 6.5
2015-Apr-13 15:33N 41°44' W 070°37'5 5.5
2015-Apr-13 14:33N 41°40' W 070°42'0 0.0
2015-Apr-13 12:29N 41°40' W 070°42'0 0.0
2015-Apr-13 11:33N 41°40' W 070°42'0 0.1
2015-Apr-13 10:33N 41°40' W 070°42'0 0.2
2015-Apr-13 09:33N 41°40' W 070°42'0 0.0
2015-Apr-13 08:33N 41°40' W 070°42'6 3.0
2015-Apr-13 06:33N 41°34' W 070°44'8 7.9
2015-Apr-13 05:33N 41°30' W 070°52'8 8.2
2015-Apr-13 04:33N 41°26' W 071°02'7 7.4
2015-Apr-13 03:33N 41°25' W 071°12'8 7.6
2015-Apr-13 02:33N 41°25' W 071°22'7 7.0
2015-Apr-13 01:33N 41°32' W 071°20'7 7.3
2015-Apr-13 00:33N 41°39' W 071°19'7 7.1
2015-Apr-12 23:33N 41°46' W 071°23'3 0.9
2015-Apr-12 20:30N 41°48' W 071°24'0 0.0
2015-Apr-12 08:24N 41°48' W 071°24'0 0.0
2015-Apr-12 06:24N 41°48' W 071°24'0 0.0
2015-Apr-12 05:30N 41°48' W 071°24'0 0.0
2015-Apr-12 04:30N 41°48' W 071°24'1 0.3
2015-Apr-12 02:08N 41°49' W 071°24'0 0.0
2015-Apr-11 23:03N 41°49' W 071°24'3 1.0
2015-Apr-11 20:20N 41°47' W 071°22'7 7.7
2015-Apr-11 19:29N 41°41' W 071°19'9 8.1
2015-Apr-11 18:24N 41°32' W 071°20'7 7.9
2015-Apr-11 17:33N 41°25' W 071°22'16 7.8
2015-Apr-11 15:33N 41°26' W 071°01'10 8.1
2015-Apr-11 14:22N 41°31' W 070°50'7 8.5
2015-Apr-11 13:33N 41°35' W 070°43'45 2.3
2015-Apr-10 18:18N 42°19' W 070°55'5 6.4
2015-Apr-10 17:29N 42°15' W 070°58'11 0.4
2015-Apr-09 11:06N 42°22' W 070°47'4 7.3
2015-Apr-09 10:33N 42°26' W 070°44'22 7.4
2015-Apr-09 07:31N 42°44' W 070°27'53 7.2
2015-Apr-09 00:04N 43°37' W 070°11'4 0.5
2015-Apr-08 16:33N 43°39' W 070°16'5 5.0
2015-Apr-08 15:33N 43°36' W 070°10'29 6.6
2015-Apr-08 11:09N 43°07' W 070°13'12 6.7
2015-Apr-08 09:20N 42°55' W 070°15'14 6.9
2015-Apr-08 07:20N 42°41' W 070°18'6 7.1
2015-Apr-08 06:31N 42°35' W 070°20'14 6.9
2015-Apr-08 04:33N 42°22' W 070°23'8 7.1
2015-Apr-08 03:29N 42°14' W 070°24'7 6.9
2015-Apr-08 02:25N 42°07' W 070°26'35 3.3
2015-Apr-07 15:32N 41°34' W 070°44'7 6.8
2015-Apr-07 14:33N 41°30' W 070°51'7 7.4
2015-Apr-07 13:33N 41°27' W 070°60'7 7.4
2015-Apr-07 12:33N 41°21' W 071°06'7 7.0
2015-Apr-07 11:33N 41°16' W 071°12'7 6.8
2015-Apr-07 10:33N 41°11' W 071°17'7 6.6
2015-Apr-07 09:33N 41°07' W 071°25'7 6.7
2015-Apr-07 08:33N 41°05' W 071°33'  
Track history (hours):
 
Tides and Currents Weather Stations Pressure Air Temp Water Temp Dewpoint Dewpoint Depression Visibility Wind Speed Wind Dir Waves Ship Positions

Tasman Sea

Owner: Kirby Offshore Marine, LLC, Staten Island, NY. More information available from US FCC via Universal Licensing System and Coast Guard Vessel Documentation Center.

Last reported at 2015-Apr-17 08:31 UTC. Time now 2015-Apr-19 01:11 UTC.
Position N 40°57' W 073°54'.

Length 38 m; draft 5 m.

Type: Tug. MMSI: 366910960.

Date/timePositionNaut miles runAvg speedWind from/ knotsBaromVisibWave heightAir tempDewpointWater temp
2015-Apr-17 08:31N 40°57' W 073°54'7 6.9
2015-Apr-17 07:33N 40°51' W 073°57'6 5.8
2015-Apr-17 06:34N 40°46' W 074°00'6 5.7
2015-Apr-17 05:33N 40°40' W 074°02'2 1.5
2015-Apr-17 04:33N 40°40' W 074°04'2 2.1
2015-Apr-17 03:33N 40°39' W 074°07'0 0.0
2015-Apr-17 02:33N 40°39' W 074°07'0 0.0
2015-Apr-17 01:33N 40°39' W 074°07'0 0.0
2015-Apr-17 00:29N 40°39' W 074°07'0 0.0
2015-Apr-16 23:33N 40°39' W 074°07'0 0.0
2015-Apr-16 22:33N 40°39' W 074°07'0 0.0
2015-Apr-16 21:33N 40°39' W 074°07'0 0.0
2015-Apr-16 20:33N 40°39' W 074°07'0 0.0
2015-Apr-16 19:33N 40°39' W 074°07'0 0.0
2015-Apr-16 18:33N 40°39' W 074°07'3 2.5
2015-Apr-16 17:33N 40°39' W 074°10'0 0.0
2015-Apr-16 16:33N 40°39' W 074°10'5 4.5
2015-Apr-16 15:33N 40°40' W 074°04'5 4.5
2015-Apr-16 14:31N 40°35' W 074°02'6 6.6
2015-Apr-16 13:33N 40°30' W 073°57'8 8.2
2015-Apr-16 12:33N 40°30' W 073°46'9 9.2
2015-Apr-16 11:33N 40°31' W 073°34'10 9.2
2015-Apr-16 10:31N 40°32' W 073°22'9 9.4
2015-Apr-16 09:30N 40°35' W 073°10'9 9.6
2015-Apr-16 08:33N 40°38' W 072°59'10 9.6
2015-Apr-16 07:33N 40°41' W 072°47'10 9.6
2015-Apr-16 06:33N 40°44' W 072°35'10 9.7
2015-Apr-16 05:33N 40°49' W 072°23'9 9.4
2015-Apr-16 04:33N 40°53' W 072°12'9 9.4
2015-Apr-16 03:33N 40°56' W 072°01'9 9.4
2015-Apr-16 02:33N 40°60' W 071°49'9 9.4
2015-Apr-16 01:33N 41°04' W 071°38'9 8.9
2015-Apr-16 00:33N 41°09' W 071°28'8 8.2
2015-Apr-15 23:33N 41°17' W 071°26'9 8.6
2015-Apr-15 22:33N 41°25' W 071°24'9 8.6
2015-Apr-15 21:33N 41°33' W 071°19'9 8.5
2015-Apr-15 20:33N 41°42' W 071°19'6 4.4
2015-Apr-15 19:15N 41°47' W 071°22'0 0.0
2015-Apr-15 18:33N 41°47' W 071°22'0 0.0
2015-Apr-15 17:33N 41°47' W 071°22'0 0.0
2015-Apr-15 16:33N 41°47' W 071°22'0 0.0
2015-Apr-15 15:33N 41°47' W 071°22'0 0.0
2015-Apr-15 14:33N 41°47' W 071°22'0 0.0
2015-Apr-15 13:28N 41°47' W 071°22'0 0.0
2015-Apr-15 12:32N 41°47' W 071°22'0 0.0
2015-Apr-15 11:32N 41°47' W 071°22'0 0.0
2015-Apr-15 10:33N 41°47' W 071°22'0 0.0
2015-Apr-15 09:33N 41°47' W 071°22'0 0.0
2015-Apr-15 08:31N 41°47' W 071°22'3 2.9
2015-Apr-15 07:33N 41°44' W 071°22'7 7.1
2015-Apr-15 06:32N 41°38' W 071°18'9 8.2
2015-Apr-15 05:25N 41°29' W 071°21'4 5.0
2015-Apr-15 04:33N 41°25' W 071°19'8 7.8
2015-Apr-15 03:33N 41°25' W 071°08'8 7.5
2015-Apr-15 02:33N 41°28' W 070°59'8 8.5
2015-Apr-15 01:33N 41°31' W 070°49'8 7.9
2015-Apr-15 00:33N 41°37' W 070°42'16 7.7
2015-Apr-14 22:28N 41°50' W 070°28'27 8.3
2015-Apr-14 19:16N 42°15' W 070°40'7 8.1
2015-Apr-14 18:25N 42°20' W 070°46'6 7.1
2015-Apr-14 17:31N 42°23' W 070°54'5 0.2
2015-Apr-13 21:26N 42°22' W 070°47'38 6.5
2015-Apr-13 15:33N 41°44' W 070°37'5 5.5
2015-Apr-13 14:33N 41°40' W 070°42'0 0.0
2015-Apr-13 12:29N 41°40' W 070°42'0 0.0
2015-Apr-13 11:33N 41°40' W 070°42'0 0.1
2015-Apr-13 10:33N 41°40' W 070°42'0 0.2
2015-Apr-13 09:33N 41°40' W 070°42'0 0.0
2015-Apr-13 08:33N 41°40' W 070°42'6 3.0
2015-Apr-13 06:33N 41°34' W 070°44'8 7.9
2015-Apr-13 05:33N 41°30' W 070°52'8 8.2
2015-Apr-13 04:33N 41°26' W 071°02'7 7.4
2015-Apr-13 03:33N 41°25' W 071°12'8 7.6
2015-Apr-13 02:33N 41°25' W 071°22'7 7.0
2015-Apr-13 01:33N 41°32' W 071°20'7 7.3
2015-Apr-13 00:33N 41°39' W 071°19'7 7.1
2015-Apr-12 23:33N 41°46' W 071°23'3 0.9
2015-Apr-12 20:30N 41°48' W 071°24'0 0.0
2015-Apr-12 08:24N 41°48' W 071°24'0 0.0
2015-Apr-12 06:24N 41°48' W 071°24'0 0.0
2015-Apr-12 05:30N 41°48' W 071°24'0 0.0
2015-Apr-12 04:30N 41°48' W 071°24'1 0.3
2015-Apr-12 02:08N 41°49' W 071°24'0 0.0
2015-Apr-11 23:03N 41°49' W 071°24'3 1.0
2015-Apr-11 20:20N 41°47' W 071°22'7 7.7
2015-Apr-11 19:29N 41°41' W 071°19'9 8.1
2015-Apr-11 18:24N 41°32' W 071°20'7 7.9
2015-Apr-11 17:33N 41°25' W 071°22'16 7.8
2015-Apr-11 15:33N 41°26' W 071°01'10 8.1
2015-Apr-11 14:22N 41°31' W 070°50'7 8.5
2015-Apr-11 13:33N 41°35' W 070°43'45 2.3
2015-Apr-10 18:18N 42°19' W 070°55'5 6.4
2015-Apr-10 17:29N 42°15' W 070°58'11 0.4
2015-Apr-09 11:06N 42°22' W 070°47'4 7.3
2015-Apr-09 10:33N 42°26' W 070°44'22 7.4
2015-Apr-09 07:31N 42°44' W 070°27'53 7.2
2015-Apr-09 00:04N 43°37' W 070°11'4 0.5
2015-Apr-08 16:33N 43°39' W 070°16'5 5.0
2015-Apr-08 15:33N 43°36' W 070°10'29 6.6
2015-Apr-08 11:09N 43°07' W 070°13'12 6.7
2015-Apr-08 09:20N 42°55' W 070°15'14 6.9
2015-Apr-08 07:20N 42°41' W 070°18'6 7.1
2015-Apr-08 06:31N 42°35' W 070°20'14 6.9
2015-Apr-08 04:33N 42°22' W 070°23'8 7.1
2015-Apr-08 03:29N 42°14' W 070°24'7 6.9
2015-Apr-08 02:25N 42°07' W 070°26'35 3.3
2015-Apr-07 15:32N 41°34' W 070°44'7 6.8
2015-Apr-07 14:33N 41°30' W 070°51'7 7.4
2015-Apr-07 13:33N 41°27' W 070°60'7 7.4
2015-Apr-07 12:33N 41°21' W 071°06'7 7.0
2015-Apr-07 11:33N 41°16' W 071°12'7 6.8
2015-Apr-07 10:33N 41°11' W 071°17'7 6.6
2015-Apr-07 09:33N 41°07' W 071°25'7 6.7
2015-Apr-07 08:33N 41°05' W 071°33'  

Dump ship's entire track history